createdAt,value
2023-01-25T00:01:44.627Z,23.90
2023-01-25T00:04:17.410Z,23.90
2023-01-25T00:06:50.251Z,23.90
2023-01-25T00:09:24.731Z,23.90
2023-01-25T00:11:58.793Z,23.90
2023-01-25T00:14:31.707Z,23.90
2023-01-25T00:17:09.646Z,23.90
2023-01-25T00:19:42.514Z,23.80
2023-01-25T00:22:15.343Z,23.80
2023-01-25T00:24:48.629Z,23.80
2023-01-25T00:27:21.656Z,23.80
2023-01-25T00:29:55.188Z,23.90
2023-01-25T00:32:33.888Z,23.90
2023-01-25T00:35:17.377Z,23.90
2023-01-25T00:49:31.195Z,24.00
2023-01-25T00:52:04.317Z,24.10
2023-01-25T00:57:28.782Z,24.10
2023-01-25T01:00:01.944Z,24.10
2023-01-25T01:02:36.292Z,24.10
2023-01-25T01:05:17.061Z,24.10
2023-01-25T01:07:59.991Z,24.20
2023-01-25T01:10:33.712Z,24.20
2023-01-25T01:13:11.004Z,24.10
2023-01-25T01:15:54.949Z,24.10
2023-01-25T01:18:33.145Z,24.10
2023-01-25T01:21:11.633Z,24.20
2023-01-25T01:23:45.332Z,24.20
2023-01-25T01:26:21.261Z,24.20
2023-01-25T01:28:54.216Z,24.20
2023-01-25T01:31:28.654Z,24.20
2023-01-25T01:34:03.066Z,24.20
2023-01-25T01:36:36.063Z,24.20
2023-01-25T01:39:14.276Z,24.20
2023-01-25T01:41:47.248Z,24.20
2023-01-25T01:44:26.690Z,24.20
2023-01-25T01:47:01.801Z,24.20
2023-01-25T01:49:36.223Z,24.20
2023-01-25T01:52:11.425Z,24.20
2023-01-25T01:54:48.801Z,24.20
2023-01-25T01:57:32.729Z,24.20
2023-01-25T02:00:14.247Z,24.20
2023-01-25T02:02:47.451Z,24.20
2023-01-25T02:05:28.147Z,24.20
2023-01-25T02:08:02.560Z,24.20
2023-01-25T02:10:36.583Z,24.10
2023-01-25T02:13:09.581Z,24.10
2023-01-25T02:15:44.383Z,24.10
2023-01-25T02:18:18.757Z,24.10
2023-01-25T02:20:57.825Z,24.10
2023-01-25T02:23:50.459Z,24.10
2023-01-25T02:26:25.287Z,24.10
2023-01-25T02:29:03.408Z,24.10
2023-01-25T02:31:36.581Z,24.10
2023-01-25T02:34:09.782Z,24.00
2023-01-25T02:36:44.935Z,24.00
2023-01-25T02:39:34.523Z,24.00
2023-01-25T02:42:07.522Z,23.90
2023-01-25T02:44:41.523Z,23.90
2023-01-25T02:47:14.439Z,23.80
2023-01-25T02:49:47.628Z,23.80
2023-01-25T02:52:20.601Z,23.80
2023-01-25T02:54:54.012Z,23.80
2023-01-25T02:57:27.018Z,23.70
2023-01-25T02:59:59.714Z,23.70
2023-01-25T03:02:33.051Z,23.70
2023-01-25T03:05:06.147Z,23.70
2023-01-25T03:07:39.557Z,23.70
2023-01-25T03:10:14.306Z,23.60
2023-01-25T03:12:47.165Z,23.60
2023-01-25T03:15:20.335Z,23.60
2023-01-25T03:17:53.404Z,23.60
2023-01-25T03:20:26.363Z,23.50
2023-01-25T03:23:00.442Z,23.50
2023-01-25T03:25:33.290Z,23.50
2023-01-25T03:28:06.474Z,23.50
2023-01-25T03:30:39.386Z,23.50
2023-01-25T03:33:12.628Z,23.50
2023-01-25T03:35:45.452Z,23.50
2023-01-25T03:38:18.498Z,23.50
2023-01-25T03:40:51.756Z,23.50
2023-01-25T03:43:25.063Z,23.40
2023-01-25T03:45:59.307Z,23.40
2023-01-25T03:48:32.772Z,23.30
2023-01-25T03:51:05.905Z,23.30
2023-01-25T03:53:39.082Z,23.30
2023-01-25T03:56:13.658Z,23.30
2023-01-25T03:58:46.914Z,23.30
2023-01-25T04:01:23.401Z,23.30
2023-01-25T04:03:56.550Z,23.20
2023-01-25T04:06:29.618Z,23.20
2023-01-25T04:09:02.808Z,23.10
2023-01-25T04:11:47.000Z,23.00
2023-01-25T04:14:31.830Z,23.00
2023-01-25T04:17:04.218Z,23.00
2023-01-25T04:19:46.733Z,22.90
2023-01-25T04:22:19.918Z,22.80
2023-01-25T04:27:45.143Z,22.80
2023-01-25T04:30:18.430Z,22.70
2023-01-25T04:32:54.987Z,22.70
2023-01-25T04:35:27.868Z,22.70
2023-01-25T04:38:11.333Z,22.60
2023-01-25T04:40:58.046Z,22.60
2023-01-25T04:43:32.324Z,22.50
2023-01-25T04:46:09.784Z,22.50
2023-01-25T04:48:46.563Z,22.50
2023-01-25T04:51:20.241Z,22.40
2023-01-25T04:56:56.501Z,22.40
2023-01-25T04:59:30.596Z,22.40
2023-01-25T05:02:04.149Z,22.40
2023-01-25T05:04:49.969Z,22.40
2023-01-25T05:10:26.026Z,22.30
2023-01-25T05:12:51.745Z,22.30
2023-01-25T05:15:24.761Z,22.20
2023-01-25T05:17:57.800Z,22.20
2023-01-25T05:20:30.644Z,22.10
2023-01-25T05:23:03.649Z,22.10
2023-01-25T05:25:54.215Z,22.10
2023-01-25T05:28:27.099Z,22.10
2023-01-25T05:30:59.903Z,22.00
2023-01-25T05:33:32.809Z,22.00
2023-01-25T05:36:05.434Z,22.00
2023-01-25T05:38:38.294Z,21.90
2023-01-25T05:41:11.082Z,21.90
2023-01-25T05:43:44.179Z,21.90
2023-01-25T05:46:17.120Z,21.90
2023-01-25T05:48:51.494Z,21.80
2023-01-25T05:51:24.404Z,21.80
2023-01-25T05:54:01.299Z,21.80
2023-01-25T05:56:34.344Z,21.70
2023-01-25T05:59:07.160Z,21.70
2023-01-25T06:01:39.950Z,21.70
2023-01-25T06:04:13.363Z,21.70
2023-01-25T06:06:46.279Z,21.70
2023-01-25T06:09:19.705Z,21.70
2023-01-25T06:11:53.574Z,21.60
2023-01-25T06:14:26.738Z,21.60
2023-01-25T06:16:59.635Z,21.60
2023-01-25T06:19:32.679Z,21.60
2023-01-25T06:22:05.889Z,21.60
2023-01-25T06:24:38.666Z,21.60
2023-01-25T06:27:12.779Z,21.50
2023-01-25T06:29:46.841Z,21.50
2023-01-25T06:32:23.065Z,21.50
2023-01-25T06:34:55.034Z,21.40
2023-01-25T06:37:27.838Z,21.40
2023-01-25T06:40:00.452Z,21.40
2023-01-25T06:42:33.285Z,21.40
2023-01-25T06:45:06.183Z,21.40
2023-01-25T06:47:41.505Z,21.30
2023-01-25T06:50:15.100Z,21.30
2023-01-25T06:52:49.124Z,21.20
2023-01-25T06:55:22.065Z,21.20
2023-01-25T06:57:59.298Z,21.20
2023-01-25T07:00:32.235Z,21.20
2023-01-25T07:03:06.283Z,21.20
2023-01-25T07:05:39.344Z,21.10
2023-01-25T07:08:12.278Z,21.10
2023-01-25T07:10:45.171Z,21.10
2023-01-25T07:13:18.617Z,21.10
2023-01-25T07:15:59.662Z,21.10
2023-01-25T07:18:33.601Z,21.10
2023-01-25T07:21:14.802Z,21.10
2023-01-25T07:23:47.876Z,21.00
2023-01-25T07:26:28.728Z,21.00
2023-01-25T07:29:02.391Z,21.00
2023-01-25T07:31:35.326Z,21.00
2023-01-25T07:34:09.066Z,20.90
2023-01-25T07:36:42.949Z,20.90
2023-01-25T07:39:15.981Z,20.90
2023-01-25T07:41:48.913Z,20.90
2023-01-25T07:44:21.890Z,20.90
2023-01-25T07:46:56.166Z,20.90
2023-01-25T07:49:29.070Z,20.80
2023-01-25T07:52:01.874Z,20.80
2023-01-25T07:54:34.826Z,20.80
2023-01-25T07:57:07.991Z,20.70
2023-01-25T07:59:40.991Z,20.70
2023-01-25T08:02:15.713Z,20.70
2023-01-25T08:04:48.522Z,20.70
2023-01-25T08:07:22.130Z,20.60
2023-01-25T08:09:54.907Z,20.60
2023-01-25T08:12:29.099Z,20.60
2023-01-25T08:15:02.051Z,20.60
2023-01-25T08:17:35.700Z,20.60
2023-01-25T08:20:09.978Z,20.50
2023-01-25T08:22:42.899Z,20.50
2023-01-25T08:25:16.311Z,20.50
2023-01-25T08:27:49.043Z,20.50
2023-01-25T08:30:22.514Z,20.50
2023-01-25T08:32:55.514Z,20.50
2023-01-25T08:35:32.719Z,20.50
2023-01-25T08:38:05.630Z,20.50
2023-01-25T08:40:38.830Z,20.50
2023-01-25T08:43:11.708Z,20.40
2023-01-25T08:45:44.668Z,20.40
2023-01-25T08:48:18.504Z,20.40
2023-01-25T08:50:51.668Z,20.40
2023-01-25T08:53:24.862Z,20.40
2023-01-25T08:55:57.850Z,20.40
2023-01-25T08:58:31.319Z,20.40
2023-01-25T09:01:08.713Z,20.40
2023-01-25T09:03:43.459Z,20.40
2023-01-25T09:06:16.997Z,20.40
2023-01-25T09:08:50.428Z,20.40
2023-01-25T09:11:25.102Z,20.40
2023-01-25T09:13:57.993Z,20.30
2023-01-25T09:16:31.287Z,20.30
2023-01-25T09:19:08.329Z,20.30
2023-01-25T09:21:41.333Z,20.30
2023-01-25T09:24:14.170Z,20.20
2023-01-25T09:26:55.911Z,20.20
2023-01-25T09:29:21.362Z,20.20
2023-01-25T09:31:54.395Z,20.20
2023-01-25T09:34:27.417Z,20.20
2023-01-25T09:37:00.424Z,20.20
2023-01-25T09:39:33.362Z,20.20
2023-01-25T09:42:31.271Z,20.20
2023-01-25T09:45:12.684Z,20.20
2023-01-25T09:47:56.647Z,20.10
2023-01-25T09:50:34.330Z,20.10
2023-01-25T09:53:34.153Z,20.10
2023-01-25T09:56:08.888Z,20.10
2023-01-25T09:58:43.882Z,20.10
2023-01-25T10:01:38.212Z,20.10
2023-01-25T10:04:06.601Z,20.10
2023-01-25T10:06:51.438Z,20.10
2023-01-25T10:09:32.522Z,20.10
2023-01-25T10:12:09.028Z,20.00
2023-01-25T10:14:42.089Z,20.00
2023-01-25T10:17:20.169Z,20.00
2023-01-25T10:20:16.238Z,20.00
2023-01-25T10:22:51.640Z,20.00
2023-01-25T10:25:29.265Z,20.00
2023-01-25T10:28:22.179Z,20.00
2023-01-25T10:31:13.002Z,20.00
2023-01-25T10:33:47.495Z,20.00
2023-01-25T10:36:22.586Z,20.00
2023-01-25T10:38:56.699Z,20.00
2023-01-25T10:41:49.222Z,20.00
2023-01-25T10:44:26.239Z,20.00
2023-01-25T10:47:07.240Z,20.00
2023-01-25T10:50:06.179Z,20.00
2023-01-25T10:52:39.700Z,20.00
2023-01-25T10:55:22.821Z,20.00
2023-01-25T10:57:57.647Z,20.00
2023-01-25T11:00:38.154Z,20.00
2023-01-25T11:03:12.429Z,20.00
2023-01-25T11:05:46.570Z,20.00
2023-01-25T11:08:31.113Z,20.00
2023-01-25T11:11:05.812Z,19.90
2023-01-25T11:13:38.714Z,19.90
2023-01-25T11:16:26.100Z,19.90
2023-01-25T11:19:01.119Z,19.90
2023-01-25T11:21:35.860Z,19.90
2023-01-25T11:24:14.510Z,19.90
2023-01-25T11:26:47.364Z,20.00
2023-01-25T11:29:22.618Z,20.00
2023-01-25T11:31:59.314Z,20.00
2023-01-25T11:34:32.945Z,20.00
2023-01-25T11:37:15.920Z,20.00
2023-01-25T11:40:14.865Z,19.90
2023-01-25T11:43:21.318Z,19.90
2023-01-25T11:45:57.357Z,19.90
2023-01-25T11:48:42.351Z,19.90
2023-01-25T11:51:26.870Z,19.90
2023-01-25T11:54:21.558Z,19.90
2023-01-25T11:57:04.837Z,19.80
2023-01-25T11:59:56.775Z,19.80
2023-01-25T12:02:34.093Z,19.80
2023-01-25T12:05:21.438Z,19.80
2023-01-25T12:08:00.381Z,19.80
2023-01-25T12:10:40.969Z,19.80
2023-01-25T12:13:38.443Z,19.80
2023-01-25T12:16:31.155Z,19.80
2023-01-25T12:19:24.404Z,19.80
2023-01-25T12:21:59.412Z,19.80
2023-01-25T12:24:53.350Z,19.80
2023-01-25T12:27:34.626Z,19.80
2023-01-25T12:30:21.140Z,19.80
2023-01-25T12:33:13.870Z,19.80
2023-01-25T12:35:43.323Z,19.80
2023-01-25T12:38:17.945Z,19.80
2023-01-25T12:40:58.905Z,19.90
2023-01-25T12:43:39.545Z,19.90
2023-01-25T12:46:20.580Z,19.90
2023-01-25T12:48:55.253Z,19.90
2023-01-25T12:51:30.416Z,19.90
2023-01-25T12:54:05.184Z,19.90
2023-01-25T12:56:47.058Z,19.90
2023-01-25T12:59:28.069Z,19.90
2023-01-25T13:02:15.056Z,19.90
2023-01-25T13:05:07.615Z,19.90
2023-01-25T13:07:42.203Z,19.90
2023-01-25T13:10:17.139Z,19.90
2023-01-25T13:13:00.674Z,19.90
2023-01-25T13:15:46.866Z,19.90
2023-01-25T13:18:37.768Z,19.90
2023-01-25T13:21:13.328Z,19.80
2023-01-25T13:23:49.183Z,19.80
2023-01-25T13:26:30.367Z,19.80
2023-01-25T13:29:03.622Z,19.80
2023-01-25T13:31:52.790Z,19.80
2023-01-25T13:34:42.075Z,19.80
2023-01-25T13:37:26.358Z,19.70
2023-01-25T13:40:08.419Z,19.70
2023-01-25T13:42:44.219Z,19.80
2023-01-25T13:45:21.811Z,19.70
2023-01-25T13:48:12.208Z,19.70
2023-01-25T13:50:53.137Z,19.70
2023-01-25T13:53:29.291Z,19.70
2023-01-25T13:56:02.818Z,19.70
2023-01-25T13:58:40.077Z,19.70
2023-01-25T14:01:25.053Z,19.70
2023-01-25T14:04:03.750Z,19.70
2023-01-25T14:06:44.050Z,19.70
2023-01-25T14:09:22.627Z,19.70
2023-01-25T14:12:00.885Z,19.70
2023-01-25T14:14:38.280Z,19.70
2023-01-25T14:17:25.686Z,19.60
2023-01-25T14:20:02.113Z,19.60
2023-01-25T14:22:37.684Z,19.60
2023-01-25T14:25:15.784Z,19.60
2023-01-25T14:27:53.613Z,19.60
2023-01-25T14:30:28.857Z,19.60
2023-01-25T14:33:03.860Z,19.60
2023-01-25T14:38:31.578Z,19.60
2023-01-25T14:41:06.172Z,19.60
2023-01-25T14:43:40.153Z,19.60
2023-01-25T14:46:30.397Z,19.60
2023-01-25T14:49:29.463Z,19.60
2023-01-25T14:52:13.002Z,19.60
2023-01-25T14:55:00.222Z,19.50
2023-01-25T14:57:44.516Z,19.50
2023-01-25T15:00:28.608Z,19.50
2023-01-25T15:03:03.850Z,19.50
2023-01-25T15:05:38.920Z,19.50
2023-01-25T15:08:17.544Z,19.50
2023-01-25T15:10:58.211Z,19.50
2023-01-25T15:13:32.335Z,19.50
2023-01-25T15:16:07.762Z,19.50
2023-01-25T15:18:54.218Z,19.50
2023-01-25T15:21:37.762Z,19.50
2023-01-25T15:24:13.185Z,19.50
2023-01-25T15:26:46.231Z,19.50
2023-01-25T15:29:22.344Z,19.50
2023-01-25T15:31:56.432Z,19.50
2023-01-25T15:34:36.156Z,19.50
2023-01-25T15:37:09.082Z,19.50
2023-01-25T15:39:42.002Z,19.50
2023-01-25T15:42:14.966Z,19.50
2023-01-25T15:44:47.995Z,19.60
2023-01-25T15:47:21.055Z,19.60
2023-01-25T15:49:55.177Z,19.60
2023-01-25T15:52:28.038Z,19.60
2023-01-25T15:55:02.129Z,19.60
2023-01-25T15:57:39.974Z,19.60
2023-01-25T16:00:15.171Z,19.60
2023-01-25T16:02:47.991Z,19.50
2023-01-25T16:05:20.980Z,19.50
2023-01-25T16:07:53.866Z,19.50
2023-01-25T16:10:28.159Z,19.50
2023-01-25T16:13:01.183Z,19.50
2023-01-25T16:15:34.037Z,19.50
2023-01-25T16:18:11.217Z,19.50
2023-01-25T16:20:45.146Z,19.50
2023-01-25T16:23:18.556Z,19.50
2023-01-25T16:25:52.690Z,19.50
2023-01-25T16:28:25.497Z,19.50
2023-01-25T16:30:59.638Z,19.50
2023-01-25T16:33:50.978Z,19.50
2023-01-25T16:36:25.472Z,19.50
2023-01-25T16:38:58.476Z,19.50
2023-01-25T16:41:31.454Z,19.50
2023-01-25T16:44:04.588Z,19.50
2023-01-25T16:46:37.878Z,19.50
2023-01-25T16:49:13.821Z,19.50
2023-01-25T16:51:47.297Z,19.40
2023-01-25T16:54:21.269Z,19.50
2023-01-25T16:56:54.924Z,19.40
2023-01-25T16:59:28.186Z,19.50
2023-01-25T17:02:01.215Z,19.40
2023-01-25T17:04:34.622Z,19.40
2023-01-25T17:07:07.344Z,19.40
2023-01-25T17:09:40.163Z,19.40
2023-01-25T17:12:14.269Z,19.40
2023-01-25T17:14:49.474Z,19.40
2023-01-25T17:17:22.402Z,19.40
2023-01-25T17:19:55.367Z,19.40
2023-01-25T17:22:28.930Z,19.40
2023-01-25T17:25:02.099Z,19.40
2023-01-25T17:27:34.853Z,19.40
2023-01-25T17:30:08.167Z,19.40
2023-01-25T17:32:41.462Z,19.40
2023-01-25T17:35:14.703Z,19.50
2023-01-25T17:37:47.601Z,19.50
2023-01-25T17:40:20.643Z,19.50
2023-01-25T17:42:58.579Z,19.50
2023-01-25T17:45:31.577Z,19.50
2023-01-25T17:48:04.582Z,19.50
2023-01-25T17:50:37.484Z,19.50
2023-01-25T17:53:10.819Z,19.50
2023-01-25T17:55:43.646Z,19.50
2023-01-25T17:58:16.334Z,19.50
2023-01-25T18:00:49.057Z,19.50
2023-01-25T18:03:22.342Z,19.50
2023-01-25T18:05:56.774Z,19.50
2023-01-25T18:08:29.718Z,19.50
2023-01-25T18:11:03.594Z,19.50
2023-01-25T18:13:36.464Z,19.50
2023-01-25T18:16:10.268Z,19.60
2023-01-25T18:18:43.743Z,19.60
2023-01-25T18:21:23.203Z,19.60
2023-01-25T18:23:59.167Z,19.60
2023-01-25T18:26:34.284Z,19.60
2023-01-25T18:29:15.208Z,19.60
2023-01-25T18:31:48.300Z,19.60
2023-01-25T18:34:21.317Z,19.60
2023-01-25T18:36:54.324Z,19.60
2023-01-25T18:39:27.103Z,19.60
2023-01-25T18:42:00.042Z,19.70
2023-01-25T18:44:32.948Z,19.70
2023-01-25T18:47:05.841Z,19.70
2023-01-25T18:49:38.887Z,19.70
2023-01-25T18:52:12.161Z,19.70
2023-01-25T18:54:45.148Z,19.80
2023-01-25T18:57:18.737Z,19.80
2023-01-25T18:59:52.522Z,19.90
2023-01-25T19:02:25.558Z,19.90
2023-01-25T19:04:58.546Z,20.00
2023-01-25T19:07:31.808Z,20.00
2023-01-25T19:10:04.797Z,20.00
2023-01-25T19:12:37.655Z,20.00
2023-01-25T19:15:15.523Z,20.10
2023-01-25T19:17:48.397Z,20.10
2023-01-25T19:20:21.835Z,20.10
2023-01-25T19:22:56.792Z,20.10
2023-01-25T19:25:31.277Z,20.10
2023-01-25T19:28:05.178Z,20.20
2023-01-25T19:30:38.149Z,20.20
2023-01-25T19:33:10.885Z,20.20
2023-01-25T19:35:43.818Z,20.10
2023-01-25T19:38:16.650Z,20.10
2023-01-25T19:40:49.308Z,20.10
2023-01-25T19:43:22.499Z,20.20
2023-01-25T19:45:55.495Z,20.20
2023-01-25T19:48:29.528Z,20.20
2023-01-25T19:51:04.433Z,20.30
2023-01-25T19:53:37.472Z,20.30
2023-01-25T19:56:11.954Z,20.30
2023-01-25T19:58:44.972Z,20.40
2023-01-25T20:01:23.579Z,20.40
2023-01-25T20:03:56.471Z,20.50
2023-01-25T20:06:29.840Z,20.60
2023-01-25T20:09:02.769Z,20.60
2023-01-25T20:11:37.347Z,20.60
2023-01-25T20:14:11.585Z,20.60
2023-01-25T20:16:44.850Z,20.70
2023-01-25T20:19:17.848Z,20.70
2023-01-25T20:21:50.778Z,20.70
2023-01-25T20:24:24.231Z,20.70
2023-01-25T20:26:58.873Z,20.80
2023-01-25T20:29:32.041Z,20.80
2023-01-25T20:32:05.836Z,20.90
2023-01-25T20:34:38.904Z,20.90
2023-01-25T20:37:12.247Z,21.00
2023-01-25T20:39:45.039Z,21.00
2023-01-25T20:42:44.722Z,21.10
2023-01-25T20:45:18.864Z,21.10
2023-01-25T20:47:51.776Z,21.10
2023-01-25T20:50:24.774Z,21.20
2023-01-25T20:52:57.773Z,21.20
2023-01-25T20:55:30.762Z,21.30
2023-01-25T20:58:03.807Z,21.40
2023-01-25T21:00:37.389Z,21.50
2023-01-25T21:03:10.315Z,21.60
2023-01-25T21:05:43.353Z,21.60
2023-01-25T21:08:16.304Z,21.70
2023-01-25T21:10:56.409Z,21.70
2023-01-25T21:13:30.390Z,21.80
2023-01-25T21:16:05.601Z,21.80
2023-01-25T21:18:43.112Z,21.90
2023-01-25T21:21:23.359Z,22.00
2023-01-25T21:23:57.019Z,22.00
2023-01-25T21:26:37.780Z,22.10
2023-01-25T21:29:10.839Z,22.20
2023-01-25T21:31:51.544Z,22.20
2023-01-25T21:34:24.412Z,22.30
2023-01-25T21:36:57.246Z,22.40
2023-01-25T21:39:30.233Z,22.40
2023-01-25T21:42:03.196Z,22.50
2023-01-25T21:44:53.397Z,22.50
2023-01-25T21:47:30.885Z,22.60
2023-01-25T21:50:08.407Z,22.60
2023-01-25T21:52:41.419Z,22.70
2023-01-25T21:55:14.532Z,22.70
2023-01-25T21:57:48.594Z,22.80
2023-01-25T22:00:22.274Z,22.80
2023-01-25T22:02:55.772Z,22.90
2023-01-25T22:05:28.791Z,22.90
2023-01-25T22:08:02.414Z,23.00
2023-01-25T22:10:35.160Z,23.00
2023-01-25T22:13:07.784Z,23.00
2023-01-25T22:15:40.661Z,23.00
2023-01-25T22:18:13.537Z,23.10
2023-01-25T22:20:47.391Z,23.10
2023-01-25T22:23:20.607Z,23.10
2023-01-25T22:25:53.819Z,23.20
2023-01-25T22:28:28.596Z,23.20
2023-01-25T22:31:02.251Z,23.20
2023-01-25T22:33:35.201Z,23.20
2023-01-25T22:36:08.807Z,23.30
2023-01-25T22:38:41.470Z,23.30
2023-01-25T22:41:16.816Z,23.40
2023-01-25T22:43:49.896Z,23.50
2023-01-25T22:46:24.844Z,23.50
2023-01-25T22:49:01.414Z,23.60
2023-01-25T22:51:35.559Z,23.70
2023-01-25T22:54:08.510Z,23.70
2023-01-25T22:56:41.656Z,23.70
2023-01-25T22:59:16.972Z,23.70
2023-01-25T23:01:54.233Z,23.70
2023-01-25T23:04:27.250Z,23.70
2023-01-25T23:07:01.461Z,23.60
2023-01-25T23:09:34.645Z,23.60
2023-01-25T23:12:07.733Z,23.60
2023-01-25T23:14:56.198Z,23.70
2023-01-25T23:17:51.885Z,23.70
2023-01-25T23:20:24.808Z,23.70
2023-01-25T23:22:57.700Z,23.60
2023-01-25T23:25:35.145Z,23.60
2023-01-25T23:28:09.774Z,23.60
2023-01-25T23:30:42.857Z,23.60
2023-01-25T23:33:15.711Z,23.60
2023-01-25T23:35:48.292Z,23.60
2023-01-25T23:38:21.184Z,23.60
2023-01-25T23:40:54.249Z,23.70
2023-01-25T23:43:27.077Z,23.70
2023-01-25T23:46:04.096Z,23.70
2023-01-25T23:48:37.339Z,23.80
2023-01-25T23:51:10.522Z,23.80
2023-01-25T23:53:43.863Z,23.80
2023-01-25T23:56:19.050Z,23.80
2023-01-25T23:58:52.250Z,23.80
